createdAt,value
2017-12-25T00:00:52.588Z,1017.84
2017-12-25T00:02:14.402Z,1017.82
2017-12-25T00:03:36.539Z,1017.78
2017-12-25T00:04:58.700Z,1017.78
2017-12-25T00:06:20.978Z,1017.83
2017-12-25T00:07:42.968Z,1017.79
2017-12-25T00:09:05.114Z,1017.82
2017-12-25T00:10:27.341Z,1017.85
2017-12-25T00:11:49.205Z,1017.87
2017-12-25T00:13:11.118Z,1017.88
2017-12-25T00:14:33.276Z,1017.84
2017-12-25T00:15:54.943Z,1017.85
2017-12-25T00:17:17.191Z,1017.87
2017-12-25T00:18:38.836Z,1017.86
2017-12-25T00:20:00.801Z,1017.84
2017-12-25T00:21:22.663Z,1017.83
2017-12-25T00:22:44.265Z,1017.79
2017-12-25T00:24:06.127Z,1017.76
2017-12-25T00:25:28.039Z,1017.76
2017-12-25T00:26:49.906Z,1017.71
2017-12-25T00:28:11.898Z,1017.76
2017-12-25T00:29:33.288Z,1017.76
2017-12-25T00:30:55.141Z,1017.72
2017-12-25T00:32:17.264Z,1017.74
2017-12-25T00:33:39.304Z,1017.68
2017-12-25T00:35:00.993Z,1017.73
2017-12-25T00:36:23.012Z,1017.72
2017-12-25T00:37:44.864Z,1017.69
2017-12-25T00:39:06.225Z,1017.66
2017-12-25T00:40:28.292Z,1017.7
2017-12-25T00:41:49.874Z,1017.75
2017-12-25T00:43:12.007Z,1017.67
2017-12-25T00:44:33.991Z,1017.75
2017-12-25T00:45:56.236Z,1017.73
2017-12-25T00:47:18.223Z,1017.76
2017-12-25T00:48:40.086Z,1017.76
2017-12-25T00:50:02.226Z,1017.69
2017-12-25T00:51:24.407Z,1017.74
2017-12-25T00:52:46.559Z,1017.77
2017-12-25T00:54:08.433Z,1017.75
2017-12-25T00:55:29.783Z,1017.78
2017-12-25T00:56:51.392Z,1017.71
2017-12-25T00:58:12.984Z,1017.7
2017-12-25T00:59:34.851Z,1017.67
2017-12-25T01:00:56.992Z,1017.67
2017-12-25T01:02:18.915Z,1017.64
2017-12-25T01:03:40.895Z,1017.67
2017-12-25T01:05:02.794Z,1017.68
2017-12-25T01:06:24.954Z,1017.62
2017-12-25T01:07:46.877Z,1017.67
2017-12-25T01:09:08.736Z,1017.59
2017-12-25T01:10:30.885Z,1017.53
2017-12-25T01:11:53.055Z,1017.64
2017-12-25T01:13:15.163Z,1017.64
2017-12-25T01:14:37.102Z,1017.66
2017-12-25T01:15:59.062Z,1017.64
2017-12-25T01:17:21.024Z,1017.65
2017-12-25T01:18:42.975Z,1017.72
2017-12-25T01:20:04.726Z,1017.72
2017-12-25T01:21:26.983Z,1017.67
2017-12-25T01:22:49.175Z,1017.66
2017-12-25T01:24:11.051Z,1017.69
2017-12-25T01:25:33.193Z,1017.74
2017-12-25T01:26:55.057Z,1017.59
2017-12-25T01:28:17.165Z,1017.59
2017-12-25T01:29:38.872Z,1017.62
2017-12-25T01:31:01.195Z,1017.64
2017-12-25T01:32:23.059Z,1017.64
2017-12-25T01:33:44.654Z,1017.63
2017-12-25T01:35:05.994Z,1017.69
2017-12-25T01:36:27.877Z,1017.65
2017-12-25T01:37:49.479Z,1017.63
2017-12-25T01:39:11.386Z,1017.67
2017-12-25T01:40:33.093Z,1017.58
2017-12-25T01:41:54.948Z,1017.62
2017-12-25T01:43:16.857Z,1017.67
2017-12-25T01:44:38.503Z,1017.64
2017-12-25T01:46:00.388Z,1017.63
2017-12-25T01:47:22.016Z,1017.69
2017-12-25T01:48:43.712Z,1017.66
2017-12-25T01:50:05.822Z,1017.67
2017-12-25T01:51:27.814Z,1017.68
2017-12-25T01:52:49.675Z,1017.71
2017-12-25T01:54:11.694Z,1017.67
2017-12-25T01:55:33.313Z,1017.72
2017-12-25T01:56:54.750Z,1017.71
2017-12-25T01:58:16.116Z,1017.75
2017-12-25T01:59:37.864Z,1017.71
2017-12-25T02:01:00.065Z,1017.66
2017-12-25T02:02:21.805Z,1017.74
2017-12-25T02:03:43.468Z,1017.67
2017-12-25T02:05:05.324Z,1017.71
2017-12-25T02:06:27.470Z,1017.77
2017-12-25T02:07:49.330Z,1017.72
2017-12-25T02:09:10.664Z,1017.77
2017-12-25T02:10:32.442Z,1017.68
2017-12-25T02:11:54.613Z,1017.7
2017-12-25T02:13:16.006Z,1017.72
2017-12-25T02:14:38.102Z,1017.69
2017-12-25T02:15:59.962Z,1017.68
2017-12-25T02:17:21.325Z,1017.62
2017-12-25T02:18:43.672Z,1017.66
2017-12-25T02:20:05.535Z,1017.63
2017-12-25T02:21:27.685Z,1017.64
2017-12-25T02:22:49.617Z,1017.58
2017-12-25T02:24:11.824Z,1017.64
2017-12-25T02:25:33.679Z,1017.57
2017-12-25T02:26:55.826Z,1017.57
2017-12-25T02:28:17.694Z,1017.57
2017-12-25T02:29:38.779Z,1017.55
2017-12-25T02:31:00.658Z,1017.52
2017-12-25T02:32:22.555Z,1017.52
2017-12-25T02:33:44.234Z,1017.44
2017-12-25T02:35:05.837Z,1017.4
2017-12-25T02:36:27.605Z,1017.4
2017-12-25T02:37:49.662Z,1017.43
2017-12-25T02:39:11.628Z,1017.33
2017-12-25T02:40:33.501Z,1017.32
2017-12-25T02:41:55.742Z,1017.29
2017-12-25T02:43:17.976Z,1017.35
2017-12-25T02:44:39.833Z,1017.33
2017-12-25T02:46:01.711Z,1017.18
2017-12-25T02:47:23.574Z,1017.22
2017-12-25T02:48:45.442Z,1017.2
2017-12-25T02:50:07.291Z,1017.17
2017-12-25T02:51:29.258Z,1017.2
2017-12-25T02:52:50.861Z,1017.25
2017-12-25T02:54:12.497Z,1017.18
2017-12-25T02:55:34.517Z,1017.18
2017-12-25T02:56:56.409Z,1017.16
2017-12-25T02:58:18.355Z,1017.11
2017-12-25T02:59:39.977Z,1017.09
2017-12-25T03:01:01.839Z,1017.03
2017-12-25T03:02:23.526Z,1017.07
2017-12-25T03:03:45.601Z,1016.97
2017-12-25T03:05:07.736Z,1017.02
2017-12-25T03:06:29.405Z,1017.01
2017-12-25T03:07:51.294Z,1016.97
2017-12-25T03:09:13.508Z,1017.02
2017-12-25T03:10:35.518Z,1017
2017-12-25T03:11:57.115Z,1017.07
2017-12-25T03:13:19.275Z,1017.06
2017-12-25T03:14:41.173Z,1017.07
2017-12-25T03:16:03.072Z,1017.05
2017-12-25T03:17:24.962Z,1017.07
2017-12-25T03:18:46.334Z,1017.09
2017-12-25T03:20:08.209Z,1017.13
2017-12-25T03:21:30.502Z,1017.06
2017-12-25T03:22:52.235Z,1017.08
2017-12-25T03:24:14.107Z,1017.04
2017-12-25T03:25:35.495Z,1017.05
2017-12-25T03:26:57.108Z,1017.09
2017-12-25T03:28:18.972Z,1017.01
2017-12-25T03:29:40.891Z,1017.08
2017-12-25T03:31:02.765Z,1017.03
2017-12-25T03:32:24.663Z,1017.1
2017-12-25T03:33:46.277Z,1016.97
2017-12-25T03:35:08.165Z,1017
2017-12-25T03:36:30.293Z,1017.06
2017-12-25T03:37:51.894Z,1017.04
2017-12-25T03:39:13.806Z,1017
2017-12-25T03:40:35.416Z,1017.07
2017-12-25T03:41:57.336Z,1017.03
2017-12-25T03:43:19.187Z,1017.01
2017-12-25T03:44:41.049Z,1017
2017-12-25T03:46:03.197Z,1017.03
2017-12-25T03:47:24.786Z,1016.95
2017-12-25T03:48:46.644Z,1016.91
2017-12-25T03:50:08.531Z,1017.01
2017-12-25T03:51:30.139Z,1016.95
2017-12-25T03:52:52.019Z,1016.92
2017-12-25T03:54:13.620Z,1016.97
2017-12-25T03:55:35.536Z,1016.94
2017-12-25T03:56:57.375Z,1016.93
2017-12-25T03:58:19.039Z,1016.97
2017-12-25T03:59:40.633Z,1016.92
2017-12-25T04:01:02.240Z,1016.94
2017-12-25T04:02:24.387Z,1016.91
2017-12-25T04:03:45.469Z,1016.89
2017-12-25T04:05:06.815Z,1016.94
2017-12-25T04:06:28.470Z,1016.94
2017-12-25T04:07:50.067Z,1016.91
2017-12-25T04:09:11.973Z,1016.93
2017-12-25T04:10:33.091Z,1016.91
2017-12-25T04:11:54.781Z,1016.86
2017-12-25T04:13:17.104Z,1016.9
2017-12-25T04:14:38.776Z,1016.94
2017-12-25T04:16:00.376Z,1016.8
2017-12-25T04:17:22.238Z,1016.84
2017-12-25T04:18:43.875Z,1016.81
2017-12-25T04:20:05.233Z,1016.83
2017-12-25T04:21:27.086Z,1016.79
2017-12-25T04:22:48.944Z,1016.77
2017-12-25T04:24:10.539Z,1016.75
2017-12-25T04:25:32.605Z,1016.68
2017-12-25T04:26:54.178Z,1016.68
2017-12-25T04:28:16.036Z,1016.79
2017-12-25T04:29:37.366Z,1016.73
2017-12-25T04:30:58.954Z,1016.72
2017-12-25T04:32:20.680Z,1016.72
2017-12-25T04:33:42.622Z,1016.66
2017-12-25T04:35:04.920Z,1016.7
2017-12-25T04:36:27.125Z,1016.69
2017-12-25T04:37:48.744Z,1016.67
2017-12-25T04:39:10.867Z,1016.68
2017-12-25T04:40:32.999Z,1016.66
2017-12-25T04:41:55.132Z,1016.68
2017-12-25T04:43:16.825Z,1016.65
2017-12-25T04:44:38.420Z,1016.71
2017-12-25T04:46:00.618Z,1016.66
2017-12-25T04:47:22.213Z,1016.61
2017-12-25T04:48:43.562Z,1016.64
2017-12-25T04:50:05.265Z,1016.65
2017-12-25T04:51:27.420Z,1016.6
2017-12-25T04:52:49.567Z,1016.61
2017-12-25T04:54:11.163Z,1016.55
2017-12-25T04:55:32.676Z,1016.56
2017-12-25T04:56:54.654Z,1016.56
2017-12-25T04:58:16.015Z,1016.56
2017-12-25T04:59:38.151Z,1016.49
2017-12-25T05:01:00.055Z,1016.46
2017-12-25T05:02:21.961Z,1016.47
2017-12-25T05:03:43.555Z,1016.5
2017-12-25T05:05:05.464Z,1016.49
2017-12-25T05:06:27.134Z,1016.44
2017-12-25T05:07:48.495Z,1016.44
2017-12-25T05:09:09.844Z,1016.45
2017-12-25T05:10:31.506Z,1016.43
2017-12-25T05:11:53.361Z,1016.39
2017-12-25T05:13:14.996Z,1016.36
2017-12-25T05:14:36.888Z,1016.37
2017-12-25T05:15:58.952Z,1016.39
2017-12-25T05:17:21.084Z,1016.44
2017-12-25T05:18:42.982Z,1016.4
2017-12-25T05:20:05.263Z,1016.42
2017-12-25T05:21:26.864Z,1016.37
2017-12-25T05:22:48.767Z,1016.39
2017-12-25T05:24:10.623Z,1016.36
2017-12-25T05:25:32.249Z,1016.29
2017-12-25T05:26:53.633Z,1016.3
2017-12-25T05:28:15.258Z,1016.27
2017-12-25T05:29:36.651Z,1016.28
2017-12-25T05:30:58.724Z,1016.29
2017-12-25T05:32:20.596Z,1016.23
2017-12-25T05:33:42.204Z,1016.27
2017-12-25T05:35:04.005Z,1016.19
2017-12-25T05:36:26.122Z,1016.17
2017-12-25T05:37:47.726Z,1016.19
2017-12-25T05:39:09.320Z,1016.18
2017-12-25T05:40:31.211Z,1016.21
2017-12-25T05:41:53.184Z,1016.16
2017-12-25T05:43:14.785Z,1016.17
2017-12-25T05:44:36.774Z,1016.17
2017-12-25T05:45:58.854Z,1016.15
2017-12-25T05:47:20.738Z,1016.15
2017-12-25T05:48:41.829Z,1016.14
2017-12-25T05:50:03.964Z,1016.15
2017-12-25T05:51:26.305Z,1016.11
2017-12-25T05:52:48.062Z,1016.15
2017-12-25T05:54:09.208Z,1016.17
2017-12-25T05:55:31.116Z,1016.17
2017-12-25T05:56:53.284Z,1016.16
2017-12-25T05:58:14.902Z,1016.13
2017-12-25T05:59:36.509Z,1016.18
2017-12-25T06:00:58.089Z,1016.18
2017-12-25T06:02:19.169Z,1016.2
2017-12-25T06:03:41.055Z,1016.2
2017-12-25T06:05:02.792Z,1016.22
2017-12-25T06:06:24.265Z,1016.21
2017-12-25T06:07:45.875Z,1016.14
2017-12-25T06:09:07.564Z,1016.2
2017-12-25T06:10:29.177Z,1016.18
2017-12-25T06:11:51.035Z,1016.17
2017-12-25T06:13:13.178Z,1016.13
2017-12-25T06:14:34.533Z,1016.16
2017-12-25T06:15:56.267Z,1016.15
2017-12-25T06:17:17.884Z,1016.11
2017-12-25T06:18:39.265Z,1016.1
2017-12-25T06:20:00.906Z,1016.04
2017-12-25T06:21:22.521Z,1016.09
2017-12-25T06:22:44.246Z,1016.04
2017-12-25T06:24:05.845Z,1016.05
2017-12-25T06:25:27.611Z,1016.06
2017-12-25T06:26:49.544Z,1016.05
2017-12-25T06:28:11.155Z,1016.05
2017-12-25T06:29:33.075Z,1016
2017-12-25T06:30:55.056Z,1016.02
2017-12-25T06:32:16.409Z,1016.03
2017-12-25T06:33:37.860Z,1016.01
2017-12-25T06:34:59.814Z,1015.98
2017-12-25T06:36:21.208Z,1015.97
2017-12-25T06:37:43.007Z,1015.97
2017-12-25T06:39:04.856Z,1016
2017-12-25T06:40:26.193Z,1016.01
2017-12-25T06:41:48.377Z,1015.9
2017-12-25T06:43:09.738Z,1015.94
2017-12-25T06:44:31.866Z,1015.89
2017-12-25T06:45:53.197Z,1015.82
2017-12-25T06:47:14.830Z,1015.86
2017-12-25T06:48:36.454Z,1015.85
2017-12-25T06:49:58.337Z,1015.85
2017-12-25T06:51:20.203Z,1015.77
2017-12-25T06:52:41.830Z,1015.78
2017-12-25T06:54:03.689Z,1015.71
2017-12-25T06:55:25.554Z,1015.67
2017-12-25T06:56:46.694Z,1015.73
2017-12-25T06:58:09.165Z,1015.69
2017-12-25T06:59:31.328Z,1015.69
2017-12-25T07:00:52.687Z,1015.68
2017-12-25T07:02:14.288Z,1015.66
2017-12-25T07:03:35.911Z,1015.69
2017-12-25T07:04:57.905Z,1015.65
2017-12-25T07:06:19.293Z,1015.66
2017-12-25T07:07:41.285Z,1015.66
2017-12-25T07:09:03.149Z,1015.66
2017-12-25T07:10:25.174Z,1015.71
2017-12-25T07:11:46.800Z,1015.71
2017-12-25T07:13:08.407Z,1015.67
2017-12-25T07:14:29.846Z,1015.66
2017-12-25T07:15:51.704Z,1015.66
2017-12-25T07:17:13.165Z,1015.67
2017-12-25T07:18:35.035Z,1015.69
2017-12-25T07:19:56.902Z,1015.64
2017-12-25T07:21:18.629Z,1015.63
2017-12-25T07:22:40.064Z,1015.69
2017-12-25T07:24:02.824Z,1015.66
2017-12-25T07:25:24.681Z,1015.64
2017-12-25T07:26:46.056Z,1015.69
2017-12-25T07:28:07.694Z,1015.67
2017-12-25T07:29:29.332Z,1015.69
2017-12-25T07:30:51.283Z,1015.65
2017-12-25T07:32:13.044Z,1015.7
2017-12-25T07:33:34.918Z,1015.7
2017-12-25T07:34:56.254Z,1015.75
2017-12-25T07:36:17.593Z,1015.71
2017-12-25T07:37:38.962Z,1015.71
2017-12-25T07:39:00.626Z,1015.74
2017-12-25T07:40:22.374Z,1015.7
2017-12-25T07:41:44.078Z,1015.74
2017-12-25T07:43:05.694Z,1015.83
2017-12-25T07:44:27.627Z,1015.79
2017-12-25T07:45:49.226Z,1015.77
2017-12-25T07:47:11.404Z,1015.77
2017-12-25T07:48:32.800Z,1015.8
2017-12-25T07:49:54.979Z,1015.75
2017-12-25T07:51:17.258Z,1015.73
2017-12-25T07:52:38.601Z,1015.74
2017-12-25T07:54:00.650Z,1015.79
2017-12-25T07:55:22.762Z,1015.77
2017-12-25T07:56:44.575Z,1015.73
2017-12-25T07:58:06.194Z,1015.76
2017-12-25T07:59:27.797Z,1015.76
2017-12-25T08:00:49.531Z,1015.77
2017-12-25T08:02:11.195Z,1015.74
2017-12-25T08:03:33.341Z,1015.73
2017-12-25T08:04:55.487Z,1015.81
2017-12-25T08:06:17.142Z,1015.73
2017-12-25T08:07:38.758Z,1015.7
2017-12-25T08:09:00.380Z,1015.67
2017-12-25T08:10:22.008Z,1015.71
2017-12-25T08:11:43.853Z,1015.68
2017-12-25T08:13:05.193Z,1015.62
2017-12-25T08:14:27.412Z,1015.71
2017-12-25T08:15:49.028Z,1015.7
2017-12-25T08:17:10.653Z,1015.71
2017-12-25T08:18:32.657Z,1015.69
2017-12-25T08:19:54.523Z,1015.74
2017-12-25T08:21:16.153Z,1015.77
2017-12-25T08:22:38.099Z,1015.78
2017-12-25T08:24:00.225Z,1015.8
2017-12-25T08:25:22.384Z,1015.77
2017-12-25T08:26:44.283Z,1015.8
2017-12-25T08:28:05.894Z,1015.77
2017-12-25T08:29:27.884Z,1015.74
2017-12-25T08:30:49.784Z,1015.76
2017-12-25T08:32:11.989Z,1015.74
2017-12-25T08:33:33.869Z,1015.75
2017-12-25T08:34:55.016Z,1015.81
2017-12-25T08:36:16.878Z,1015.81
2017-12-25T08:37:38.836Z,1015.83
2017-12-25T08:39:00.449Z,1015.79
2017-12-25T08:40:22.954Z,1015.81
2017-12-25T08:41:44.565Z,1015.8
2017-12-25T08:43:06.378Z,1015.8
2017-12-25T08:44:28.531Z,1015.8
2017-12-25T08:45:50.675Z,1015.78
2017-12-25T08:47:12.434Z,1015.79
2017-12-25T08:48:34.402Z,1015.75
2017-12-25T08:49:56.017Z,1015.71
2017-12-25T08:51:17.634Z,1015.74
2017-12-25T08:52:39.261Z,1015.7
2017-12-25T08:54:01.162Z,1015.66
2017-12-25T08:55:22.875Z,1015.69
2017-12-25T08:56:45.023Z,1015.75
2017-12-25T08:58:06.649Z,1015.78
2017-12-25T08:59:28.267Z,1015.79
2017-12-25T09:00:49.891Z,1015.79
2017-12-25T09:02:11.880Z,1015.8
2017-12-25T09:03:34.069Z,1015.8
2017-12-25T09:04:56.016Z,1015.76
2017-12-25T09:06:18.163Z,1015.72
2017-12-25T09:07:40.045Z,1015.73
2017-12-25T09:09:01.964Z,1015.81
2017-12-25T09:10:23.829Z,1015.74
2017-12-25T09:11:45.984Z,1015.78
2017-12-25T09:13:08.115Z,1015.8
2017-12-25T09:14:30.025Z,1015.78
2017-12-25T09:15:52.306Z,1015.74
2017-12-25T09:17:13.972Z,1015.74
2017-12-25T09:18:36.148Z,1015.83
2017-12-25T09:19:58.307Z,1015.83
2017-12-25T09:21:19.492Z,1015.85
2017-12-25T09:22:40.839Z,1015.85
2017-12-25T09:24:02.982Z,1015.85
2017-12-25T09:25:25.195Z,1015.9
2017-12-25T09:26:47.335Z,1015.83
2017-12-25T09:28:09.515Z,1015.86
2017-12-25T09:29:31.401Z,1015.87
2017-12-25T09:30:52.762Z,1015.88
2017-12-25T09:32:14.737Z,1015.83
2017-12-25T09:33:36.683Z,1015.91
2017-12-25T09:34:58.936Z,1015.86
2017-12-25T09:36:20.903Z,1015.83
2017-12-25T09:37:43.021Z,1015.86
2017-12-25T09:39:04.885Z,1015.85
2017-12-25T09:40:27.123Z,1015.86
2017-12-25T09:41:49.263Z,1015.79
2017-12-25T09:43:11.193Z,1015.82
2017-12-25T09:44:32.840Z,1015.76
2017-12-25T09:45:54.744Z,1015.8
2017-12-25T09:47:16.384Z,1015.82
2017-12-25T09:48:38.596Z,1015.74
2017-12-25T09:50:00.052Z,1015.71
2017-12-25T09:51:21.686Z,1015.77
2017-12-25T09:52:43.024Z,1015.65
2017-12-25T09:54:05.252Z,1015.7
2017-12-25T09:55:27.414Z,1015.67
2017-12-25T09:56:49.554Z,1015.69
2017-12-25T09:58:11.677Z,1015.72
2017-12-25T09:59:33.307Z,1015.65
2017-12-25T10:00:55.514Z,1015.72
2017-12-25T10:02:17.664Z,1015.7
2017-12-25T10:03:39.636Z,1015.7
2017-12-25T10:05:01.827Z,1015.63
2017-12-25T10:06:23.445Z,1015.59
2017-12-25T10:07:45.646Z,1015.6
2017-12-25T10:09:07.642Z,1015.6
2017-12-25T10:10:29.514Z,1015.61
2017-12-25T10:11:51.685Z,1015.52
2017-12-25T10:13:13.860Z,1015.52
2017-12-25T10:14:36.046Z,1015.5
2017-12-25T10:15:57.932Z,1015.51
2017-12-25T10:17:20.265Z,1015.46
2017-12-25T10:18:42.544Z,1015.47
2017-12-25T10:20:04.728Z,1015.4
2017-12-25T10:21:26.707Z,1015.43
2017-12-25T10:22:48.650Z,1015.39
2017-12-25T10:24:10.827Z,1015.34
2017-12-25T10:25:32.475Z,1015.41
2017-12-25T10:26:54.074Z,1015.44
2017-12-25T10:28:16.088Z,1015.43
2017-12-25T10:29:38.381Z,1015.39
2017-12-25T10:31:00.028Z,1015.44
2017-12-25T10:32:21.773Z,1015.41
2017-12-25T10:33:43.730Z,1015.37
2017-12-25T10:35:05.735Z,1015.34
2017-12-25T10:36:27.880Z,1015.35
2017-12-25T10:37:50.269Z,1015.3
2017-12-25T10:39:12.182Z,1015.31
2017-12-25T10:40:34.473Z,1015.33
2017-12-25T10:41:56.380Z,1015.3
2017-12-25T10:43:18.362Z,1015.29
2017-12-25T10:44:39.755Z,1015.2
2017-12-25T10:46:02.284Z,1015.16
2017-12-25T10:47:24.146Z,1015.15
2017-12-25T10:48:46.215Z,1015.2
2017-12-25T10:50:08.160Z,1015.15
2017-12-25T10:51:30.070Z,1015.17
2017-12-25T10:52:52.294Z,1015.17
2017-12-25T10:54:14.196Z,1015.14
2017-12-25T10:55:36.559Z,1015.1
2017-12-25T10:56:58.715Z,1014.94
2017-12-25T10:58:20.881Z,1014.98
2017-12-25T10:59:42.761Z,1014.96
2017-12-25T11:01:05.054Z,1014.99
2017-12-25T11:02:26.834Z,1014.98
2017-12-25T11:03:48.722Z,1014.96
2017-12-25T11:05:10.686Z,1014.97
2017-12-25T11:06:33.013Z,1014.89
2017-12-25T11:07:54.969Z,1014.76
2017-12-25T11:09:16.958Z,1014.85
2017-12-25T11:10:38.943Z,1014.8
2017-12-25T11:12:00.605Z,1014.77
2017-12-25T11:13:22.963Z,1014.79
2017-12-25T11:14:44.873Z,1014.79
2017-12-25T11:16:06.494Z,1014.82
2017-12-25T11:17:28.160Z,1014.73
2017-12-25T11:18:50.020Z,1014.8
2017-12-25T11:20:12.184Z,1014.78
2017-12-25T11:21:33.944Z,1014.72
2017-12-25T11:22:55.843Z,1014.75
2017-12-25T11:24:17.205Z,1014.75
2017-12-25T11:25:39.082Z,1014.74
2017-12-25T11:27:00.984Z,1014.68
2017-12-25T11:28:22.925Z,1014.72
2017-12-25T11:29:44.295Z,1014.7
2017-12-25T11:31:05.971Z,1014.72
2017-12-25T11:32:27.594Z,1014.74
2017-12-25T11:33:49.523Z,1014.76
2017-12-25T11:35:11.977Z,1014.73
2017-12-25T11:36:34.145Z,1014.69
2017-12-25T11:37:56.103Z,1014.71
2017-12-25T11:39:18.273Z,1014.73
2017-12-25T11:40:39.630Z,1014.73
2017-12-25T11:42:01.866Z,1014.67
2017-12-25T11:43:23.238Z,1014.65
2017-12-25T11:44:45.140Z,1014.59
2017-12-25T11:46:07.025Z,1014.58
2017-12-25T11:47:28.915Z,1014.52
2017-12-25T11:48:50.627Z,1014.55
2017-12-25T11:50:12.093Z,1014.48
2017-12-25T11:51:34.247Z,1014.47
2017-12-25T11:52:56.129Z,1014.45
2017-12-25T11:54:18.285Z,1014.47
2017-12-25T11:55:39.912Z,1014.49
2017-12-25T11:57:02.160Z,1014.46
2017-12-25T11:58:23.794Z,1014.37
2017-12-25T11:59:45.947Z,1014.44
2017-12-25T12:01:07.841Z,1014.34
2017-12-25T12:02:29.752Z,1014.3
2017-12-25T12:03:51.112Z,1014.33
2017-12-25T12:05:12.991Z,1014.19
2017-12-25T12:06:35.123Z,1014.29
2017-12-25T12:07:57.207Z,1014.27
2017-12-25T12:09:19.494Z,1014.24
2017-12-25T12:10:41.391Z,1014.25
2017-12-25T12:12:03.246Z,1014.23
2017-12-25T12:13:25.123Z,1014.24
2017-12-25T12:14:46.486Z,1014.22
2017-12-25T12:16:08.361Z,1014.19
2017-12-25T12:17:30.226Z,1014.1
2017-12-25T12:18:52.247Z,1014.11
2017-12-25T12:20:13.385Z,1014.12
2017-12-25T12:21:34.792Z,1014.17
2017-12-25T12:22:56.158Z,1014.12
2017-12-25T12:24:17.266Z,1014.16
2017-12-25T12:25:39.143Z,1014.17
2017-12-25T12:27:00.875Z,1014.1
2017-12-25T12:28:22.748Z,1014.11
2017-12-25T12:29:44.398Z,1014.02
2017-12-25T12:31:05.941Z,1014.09
2017-12-25T12:32:27.886Z,1014.09
2017-12-25T12:33:49.497Z,1014.06
2017-12-25T12:35:11.144Z,1014.03
2017-12-25T12:36:32.827Z,1014.03
2017-12-25T12:37:54.990Z,1014.02
2017-12-25T12:39:16.964Z,1013.98
2017-12-25T12:40:38.632Z,1014.03
2017-12-25T12:42:00.545Z,1013.99
2017-12-25T12:43:21.635Z,1014.02
2017-12-25T12:44:43.056Z,1014.01
2017-12-25T12:46:04.686Z,1013.99
2017-12-25T12:47:26.534Z,1013.99
2017-12-25T12:48:48.661Z,1013.9
2017-12-25T12:50:10.826Z,1013.93
2017-12-25T12:53:09.572Z,1013.97
2017-12-25T12:54:30.976Z,1013.96
2017-12-25T12:55:52.073Z,1013.94
2017-12-25T12:57:13.710Z,1013.97
2017-12-25T12:58:35.085Z,1013.84
2017-12-25T12:59:56.714Z,1013.82
2017-12-25T13:01:18.469Z,1013.8
2017-12-25T13:02:40.092Z,1013.86
2017-12-25T13:04:02.311Z,1013.83
2017-12-25T13:05:23.946Z,1013.8
2017-12-25T13:06:45.435Z,1013.73
2017-12-25T13:08:07.593Z,1013.66
2017-12-25T13:09:29.213Z,1013.66
2017-12-25T13:10:51.340Z,1013.71
2017-12-25T13:12:13.258Z,1013.69
2017-12-25T13:13:34.696Z,1013.65
2017-12-25T13:14:56.316Z,1013.65
2017-12-25T13:16:17.964Z,1013.66
2017-12-25T13:17:39.843Z,1013.71
2017-12-25T13:19:00.968Z,1013.68
2017-12-25T13:20:22.612Z,1013.56
2017-12-25T13:21:44.484Z,1013.59
2017-12-25T13:23:06.485Z,1013.52
2017-12-25T13:24:28.104Z,1013.54
2017-12-25T13:25:49.229Z,1013.58
2017-12-25T13:27:10.579Z,1013.5
2017-12-25T13:28:32.730Z,1013.51
2017-12-25T13:29:54.110Z,1013.48
2017-12-25T13:31:15.744Z,1013.46
2017-12-25T13:32:37.096Z,1013.43
2017-12-25T13:33:59.145Z,1013.39
2017-12-25T13:35:20.772Z,1013.44
2017-12-25T13:36:42.705Z,1013.42
2017-12-25T13:38:04.334Z,1013.44
2017-12-25T13:39:26.326Z,1013.4
2017-12-25T13:40:48.225Z,1013.35
2017-12-25T13:42:10.100Z,1013.35
2017-12-25T13:43:32.233Z,1013.33
2017-12-25T13:44:53.876Z,1013.36
2017-12-25T13:46:15.307Z,1013.31
2017-12-25T13:47:37.447Z,1013.32
2017-12-25T13:48:59.447Z,1013.3
2017-12-25T13:50:21.296Z,1013.31
2017-12-25T13:51:43.328Z,1013.34
2017-12-25T13:53:04.504Z,1013.3
2017-12-25T13:54:26.188Z,1013.34
2017-12-25T13:55:47.828Z,1013.29
2017-12-25T13:57:09.993Z,1013.32
2017-12-25T13:58:31.392Z,1013.26
2017-12-25T13:59:52.736Z,1013.26
2017-12-25T14:01:14.390Z,1013.19
2017-12-25T14:02:36.155Z,1013.21
2017-12-25T14:03:58.046Z,1013.17
2017-12-25T14:05:19.674Z,1013.19
2017-12-25T14:06:41.020Z,1013.14
2017-12-25T14:08:02.666Z,1013.17
2017-12-25T14:09:24.996Z,1013.2
2017-12-25T14:10:47.047Z,1013.21
2017-12-25T14:12:08.434Z,1013.15
2017-12-25T14:13:30.233Z,1013.1
2017-12-25T14:14:52.465Z,1013.12
2017-12-25T14:16:13.864Z,1013.08
2017-12-25T14:17:36.066Z,1013.11
2017-12-25T14:18:57.969Z,1013.1
2017-12-25T14:20:19.582Z,1013.03
2017-12-25T14:21:41.471Z,1013.05
2017-12-25T14:23:03.199Z,1013.04
2017-12-25T14:24:24.831Z,1013.01
2017-12-25T14:25:46.483Z,1013.02
2017-12-25T14:27:07.921Z,1012.99
2017-12-25T14:28:29.614Z,1013.01
2017-12-25T14:29:51.694Z,1013.01
2017-12-25T14:31:14.239Z,1013
2017-12-25T14:32:35.886Z,1013
2017-12-25T14:33:58.062Z,1012.94
2017-12-25T14:35:20.227Z,1013
2017-12-25T14:36:42.113Z,1013
2017-12-25T14:38:04.046Z,1012.94
2017-12-25T14:39:25.945Z,1012.95
2017-12-25T14:40:47.847Z,1012.9
2017-12-25T14:42:09.750Z,1012.92
2017-12-25T14:43:31.361Z,1012.94
2017-12-25T14:44:53.240Z,1012.91
2017-12-25T14:46:14.874Z,1012.91
2017-12-25T14:47:36.572Z,1012.89
2017-12-25T14:48:58.199Z,1012.9
2017-12-25T14:50:19.559Z,1012.95
2017-12-25T14:51:41.476Z,1012.91
2017-12-25T14:53:03.614Z,1012.87
2017-12-25T14:54:25.522Z,1012.89
2017-12-25T14:55:47.697Z,1012.9
2017-12-25T14:57:09.637Z,1012.88
2017-12-25T14:58:31.353Z,1012.89
2017-12-25T14:59:53.255Z,1012.87
2017-12-25T15:01:15.021Z,1012.81
2017-12-25T15:02:37.014Z,1012.81
2017-12-25T15:03:59.220Z,1012.77
2017-12-25T15:05:21.252Z,1012.83
2017-12-25T15:06:43.381Z,1012.84
2017-12-25T15:08:05.648Z,1012.84
2017-12-25T15:09:27.797Z,1012.84
2017-12-25T15:10:49.684Z,1012.82
2017-12-25T15:12:11.674Z,1012.77
2017-12-25T15:13:34.194Z,1012.81
2017-12-25T15:14:56.107Z,1012.69
2017-12-25T15:16:18.254Z,1012.69
2017-12-25T15:17:40.214Z,1012.73
2017-12-25T15:19:02.928Z,1012.57
2017-12-25T15:20:24.823Z,1012.64
2017-12-25T15:21:46.994Z,1012.6
2017-12-25T15:23:08.615Z,1012.65
2017-12-25T15:24:30.215Z,1012.55
2017-12-25T15:25:52.389Z,1012.53
2017-12-25T15:27:14.273Z,1012.58
2017-12-25T15:28:36.163Z,1012.52
2017-12-25T15:29:57.513Z,1012.52
2017-12-25T15:31:19.106Z,1012.55
2017-12-25T15:32:41.301Z,1012.52
2017-12-25T15:34:03.453Z,1012.54
2017-12-25T15:35:25.665Z,1012.5
2017-12-25T15:36:47.443Z,1012.48
2017-12-25T15:38:09.603Z,1012.43
2017-12-25T15:39:31.754Z,1012.43
2017-12-25T15:40:53.382Z,1012.39
2017-12-25T15:42:15.023Z,1012.38
2017-12-25T15:43:37.173Z,1012.32
2017-12-25T15:44:59.452Z,1012.36
2017-12-25T15:46:21.686Z,1012.34
2017-12-25T15:47:43.575Z,1012.3
2017-12-25T15:49:05.864Z,1012.31
2017-12-25T15:50:28.021Z,1012.26
2017-12-25T15:51:49.628Z,1012.26
2017-12-25T15:53:11.526Z,1012.24
2017-12-25T15:54:33.412Z,1012.17
2017-12-25T15:55:55.582Z,1012.17
2017-12-25T15:57:17.746Z,1012.22
2017-12-25T15:58:39.646Z,1012.19
2017-12-25T16:00:01.794Z,1012.16
2017-12-25T16:01:23.943Z,1012
2017-12-25T16:02:46.205Z,1012.08
2017-12-25T16:04:08.144Z,1012.08
2017-12-25T16:05:30.264Z,1012.01
2017-12-25T16:06:52.180Z,1012.04
2017-12-25T16:08:14.322Z,1012.01
2017-12-25T16:09:36.303Z,1011.99
2017-12-25T16:10:58.552Z,1011.87
2017-12-25T16:12:20.202Z,1011.89
2017-12-25T16:13:42.356Z,1011.94
2017-12-25T16:15:04.521Z,1011.95
2017-12-25T16:16:26.757Z,1011.91
2017-12-25T16:17:48.729Z,1011.95
2017-12-25T16:19:10.944Z,1011.92
2017-12-25T16:20:32.643Z,1011.95
2017-12-25T16:21:54.303Z,1011.93
2017-12-25T16:23:16.191Z,1011.92
2017-12-25T16:24:38.095Z,1011.84
2017-12-25T16:26:00.088Z,1011.88
2017-12-25T16:27:22.036Z,1011.89
2017-12-25T16:28:44.353Z,1011.83
2017-12-25T16:30:06.280Z,1011.89
2017-12-25T16:31:28.182Z,1011.86
2017-12-25T16:32:50.392Z,1011.88
2017-12-25T16:34:12.293Z,1011.81
2017-12-25T16:35:34.282Z,1011.88